Time;durP1;ratioP1;P1;durP2;ratioP2;P2;SDS_P1;SDS_P2;PMS_P1;PMS_P2;Temp;Humidity;BMP_temperature;BMP_pressure;BME280_temperature;BME280_humidity;BME280_pressure;Samples;Min_cycle;Max_cycle;Signal;HPM_P1;HPM_P2
2021/11/17 02:26:28;;;;;;;25.70;14.05;;;;;;;5.99;81.10;93977.94;5109837;28;20118;-44
2021/11/17 02:29:06;;;;;;;23.20;13.35;;;;;;;6.13;80.58;93973.34;5110719;28;20070;-43
2021/11/17 02:31:56;;;;;;;19.90;11.40;;;;;;;6.17;80.34;93967.63;5110902;28;20031;-44
2021/11/17 02:34:30;;;;;;;17.63;11.73;;;;;;;6.14;80.52;93969.38;5110011;28;20072;-43
2021/11/17 02:37:11;;;;;;;17.48;9.73;;;;;;;6.07;81.01;93962.44;5111744;28;20027;-44
2021/11/17 02:39:51;;;;;;;16.23;9.48;;;;;;;6.13;80.57;93964.41;5113095;28;20050;-43
2021/11/17 02:42:42;;;;;;;23.52;10.30;;;;;;;6.21;80.52;93962.59;5112916;28;20489;-43
2021/11/17 02:45:58;;;;;;;15.50;10.75;;;;;;;6.23;80.25;93965.59;5092002;28;20046;-45
2021/11/17 02:49:02;;;;;;;13.70;10.02;;;;;;;6.11;80.79;93959.41;5082120;28;20059;-43
2021/11/17 02:51:46;;;;;;;14.68;10.95;;;;;;;6.05;80.91;93964.94;5112751;28;20489;-45
2021/11/17 02:54:32;;;;;;;19.25;11.35;;;;;;;5.92;81.70;93958.53;5112882;28;20028;-46
2021/11/17 02:57:13;;;;;;;16.17;11.50;;;;;;;6.02;81.62;93959.75;5112488;28;20024;-46
2021/11/17 02:59:47;;;;;;;14.77;10.63;;;;;;;6.14;80.95;93963.91;5112582;28;20089;-44
2021/11/17 03:02:54;;;;;;;18.50;11.52;;;;;;;5.94;81.38;93961.50;5112870;28;20106;-46
2021/11/17 03:05:25;;;;;;;21.33;14.55;;;;;;;5.81;81.84;93961.28;5098711;28;20028;-44
2021/11/17 03:08:06;;;;;;;22.48;14.38;;;;;;;5.89;82.08;93962.28;5112550;28;20024;-49
2021/11/17 03:10:37;;;;;;;29.05;17.13;;;;;;;5.77;82.22;93956.09;5112464;28;20567;-45
2021/11/17 03:13:32;;;;;;;25.27;16.10;;;;;;;5.78;82.85;93960.31;5112620;28;20081;-47
2021/11/17 03:16:22;;;;;;;26.92;15.52;;;;;;;5.91;82.48;93951.56;5111214;28;20051;-48
2021/11/17 03:19:06;;;;;;;23.45;13.90;;;;;;;6.03;81.49;93951.00;5092107;28;20051;-47
2021/11/17 03:22:00;;;;;;;22.27;13.98;;;;;;;6.18;80.82;93958.13;5091866;28;20654;-46
2021/11/17 03:24:34;;;;;;;24.52;15.88;;;;;;;6.10;80.59;93958.69;5091753;28;20045;-46
2021/11/17 03:26:59;;;;;;;22.98;15.27;;;;;;;6.08;81.23;93968.66;5091919;28;20103;-48
2021/11/17 03:29:35;;;;;;;26.48;15.48;;;;;;;5.96;81.41;93967.97;5091545;28;20544;-48
2021/11/17 03:32:15;;;;;;;22.65;14.35;;;;;;;5.97;81.54;93969.47;5092042;28;20039;-46
2021/11/17 03:34:50;;;;;;;25.35;15.27;;;;;;;6.05;81.64;93966.94;5091744;28;20404;-46
2021/11/17 03:37:27;;;;;;;24.15;16.15;;;;;;;6.07;81.54;93970.66;5091596;28;20065;-47
2021/11/17 03:40:35;;;;;;;29.05;17.20;;;;;;;5.87;81.71;93965.53;5091577;28;20453;-46
2021/11/17 03:43:19;;;;;;;26.57;16.73;;;;;;;5.90;82.33;93967.25;5096441;28;20028;-47
2021/11/17 03:45:47;;;;;;;19.75;14.90;;;;;;;6.11;81.58;93962.91;5111819;28;20044;-50
2021/11/17 03:48:25;;;;;;;28.30;16.53;;;;;;;6.19;80.98;93968.59;5111905;28;20042;-46
2021/11/17 03:51:22;;;;;;;34.17;20.10;;;;;;;6.08;81.02;93955.72;5111490;28;20045;-45
2021/11/17 03:54:06;;;;;;;28.98;18.27;;;;;;;6.06;81.38;93958.19;5111857;28;20119;-47
2021/11/17 03:56:55;;;;;;;30.40;17.92;;;;;;;6.07;81.57;93961.69;5111704;28;20031;-47
2021/11/17 03:59:51;;;;;;;31.55;19.45;;;;;;;6.10;81.25;93964.19;5111568;28;20027;-49
2021/11/17 04:02:26;;;;;;;32.50;19.35;;;;;;;6.03;81.15;93958.47;5110893;28;20114;-47
2021/11/17 04:05:01;;;;;;;15.57;10.88;;;;;;;6.12;80.89;93958.19;5111628;28;20049;-48
2021/11/17 04:07:38;;;;;;;14.27;9.35;;;;;;;6.07;80.70;93956.19;5111597;28;20024;-47
2021/11/17 04:10:37;;;;;;;11.68;8.48;;;;;;;6.13;80.10;93953.44;5111686;28;20119;-47
2021/11/17 04:13:21;;;;;;;10.70;7.40;;;;;;;6.18;80.02;93956.13;5111046;28;20558;-44
2021/11/17 04:16:14;;;;;;;10.52;7.00;;;;;;;6.05;80.71;93953.97;5111093;28;20511;-46
2021/11/17 04:18:51;;;;;;;9.60;7.05;;;;;;;5.91;80.91;93957.06;5111143;28;20580;-44
2021/11/17 04:21:35;;;;;;;10.43;6.80;;;;;;;6.02;80.69;93957.72;5110994;28;20024;-45
2021/11/17 04:24:03;;;;;;;10.30;7.40;;;;;;;6.01;81.21;93956.25;5111391;28;20079;-44
2021/11/17 04:26:48;;;;;;;11.00;6.28;;;;;;;6.16;81.01;93958.66;5111190;28;20020;-44
2021/11/17 04:29:32;;;;;;;7.05;4.82;;;;;;;6.10;80.46;93964.19;5111250;28;20031;-47
2021/11/17 04:32:03;;;;;;;6.35;4.15;;;;;;;6.02;80.16;93957.72;5111212;28;20074;-45
2021/11/17 04:34:44;;;;;;;6.15;4.95;;;;;;;6.10;79.98;93966.91;5110848;28;20059;-45
2021/11/17 04:37:26;;;;;;;3.78;3.40;;;;;;;6.04;80.11;93960.69;5110925;28;20036;-47
2021/11/17 04:40:28;;;;;;;4.30;3.90;;;;;;;6.10;80.58;93966.16;5110576;28;20022;-47
2021/11/17 04:43:09;;;;;;;4.70;4.03;;;;;;;6.11;79.96;93962.16;5094922;28;20069;-47
2021/11/17 04:45:54;;;;;;;3.85;3.45;;;;;;;6.06;79.97;93966.41;5109462;28;20047;-47
2021/11/17 04:48:28;;;;;;;3.25;2.95;;;;;;;6.11;79.39;93964.91;5109922;28;20413;-47
2021/11/17 04:51:03;;;;;;;3.53;3.22;;;;;;;6.01;80.48;93966.47;5110665;28;20027;-46
2021/11/17 04:53:32;;;;;;;6.45;3.47;;;;;;;5.85;80.56;93962.53;5110679;28;20047;-47
2021/11/17 04:56:28;;;;;;;3.23;2.90;;;;;;;5.96;79.86;93970.72;5110897;28;20033;-46
2021/11/17 04:59:00;;;;;;;3.65;3.00;;;;;;;5.94;79.69;93972.47;5110346;28;20481;-48
2021/11/17 05:01:32;;;;;;;5.93;4.03;;;;;;;5.85;80.16;93968.03;5092029;28;20020;-47
2021/11/17 05:04:44;;;;;;;4.03;3.40;;;;;;;5.71;80.95;93965.56;5110814;28;20027;-47
2021/11/17 05:07:15;;;;;;;4.25;3.47;;;;;;;5.74;81.10;93965.31;5103135;28;20517;-47
2021/11/17 05:10:09;;;;;;;3.90;3.17;;;;;;;5.66;81.30;93963.59;5110352;28;20032;-46
2021/11/17 05:12:53;;;;;;;5.22;4.45;;;;;;;5.68;81.81;93967.31;5110419;28;20022;-48
2021/11/17 05:15:24;;;;;;;4.47;3.65;;;;;;;5.75;81.76;93974.28;5110277;28;20098;-48
2021/11/17 05:18:05;;;;;;;5.00;4.50;;;;;;;5.77;81.42;93975.25;5110583;28;20016;-48
2021/11/17 05:20:30;;;;;;;5.53;4.35;;;;;;;5.61;81.94;93970.59;5110363;28;20059;-47
2021/11/17 05:23:27;;;;;;;6.72;4.57;;;;;;;5.66;81.76;93980.03;5092073;28;20111;-46
2021/11/17 05:25:55;;;;;;;8.77;5.25;;;;;;;5.64;82.12;93979.78;5110569;28;20032;-46
2021/11/17 05:28:38;;;;;;;11.55;5.72;;;;;;;5.61;81.85;93981.53;5109052;28;20533;-47
2021/11/17 05:31:10;;;;;;;12.60;5.65;;;;;;;5.61;82.02;93984.28;5110434;28;20031;-46
2021/11/17 05:33:41;;;;;;;10.88;5.57;;;;;;;5.56;81.72;93985.06;5110502;28;20407;-47
2021/11/17 05:36:37;;;;;;;7.47;5.72;;;;;;;5.44;81.80;93986.34;5110190;28;20725;-48
2021/11/17 05:39:25;;;;;;;7.68;5.55;;;;;;;5.52;82.10;93987.31;5110177;28;20113;-47
2021/11/17 05:41:55;;;;;;;8.57;5.90;;;;;;;5.55;81.85;93986.31;5110060;28;20504;-48
2021/11/17 05:44:46;;;;;;;7.10;5.82;;;;;;;5.59;82.16;93984.03;5110007;28;20035;-46
2021/11/17 05:47:25;;;;;;;7.93;5.35;;;;;;;5.78;81.03;93981.50;5109977;28;20074;-48
2021/11/17 05:50:22;;;;;;;7.07;4.93;;;;;;;5.69;80.03;93992.75;5107824;28;20457;-48
2021/11/17 05:53:09;;;;;;;7.95;6.32;;;;;;;5.64;80.96;93990.75;5106163;28;20032;-48
2021/11/17 05:56:05;;;;;;;8.88;5.72;;;;;;;5.70;79.60;93988.72;5110356;28;20393;-46
2021/11/17 05:59:06;;;;;;;11.85;7.40;;;;;;;5.66;80.74;93991.75;5104493;28;20107;-44
2021/11/17 06:01:49;;;;;;;7.40;5.63;;;;;;;5.67;80.34;93990.50;5087498;28;20032;-44
2021/11/17 06:04:15;;;;;;;7.70;5.82;;;;;;;5.59;79.95;93992.25;5103203;28;20036;-44
2021/11/17 06:06:40;;;;;;;12.00;7.32;;;;;;;5.56;80.84;93993.28;5107364;28;20114;-44
2021/11/17 06:09:06;;;;;;;11.68;7.15;;;;;;;5.46;81.30;93989.31;5106867;28;20687;-47
2021/11/17 06:11:59;;;;;;;8.27;7.00;;;;;;;5.47;81.23;93990.81;5107981;28;20119;-46
2021/11/17 06:14:30;;;;;;;13.93;7.47;;;;;;;5.51;80.93;93999.50;5107224;28;20047;-45
2021/11/17 06:17:02;;;;;;;8.23;6.05;;;;;;;5.56;80.50;93996.03;5111392;28;20722;-45
2021/11/17 06:19:32;;;;;;;10.68;8.18;;;;;;;5.56;81.28;93995.28;5093514;28;20163;-46
2021/11/17 06:21:58;;;;;;;8.45;6.82;;;;;;;5.53;80.41;93999.00;5092810;28;20549;-46
2021/11/17 06:24:25;;;;;;;9.85;7.80;;;;;;;5.44;81.05;94010.97;5107370;28;20052;-54
2021/11/17 06:26:51;;;;;;;10.25;7.65;;;;;;;5.30;81.49;93990.13;5109775;28;20123;-53
2021/11/17 06:29:26;;;;;;;8.95;7.22;;;;;;;5.35;81.45;94003.03;5092051;28;20110;-51
2021/11/17 06:31:53;;;;;;;16.42;8.98;;;;;;;5.45;82.10;94007.00;5091592;28;20035;-53
2021/11/17 06:34:36;;;;;;;10.07;7.30;;;;;;;5.52;81.41;94005.75;5091969;28;20038;-59
2021/11/17 06:37:08;;;;;;;11.90;8.77;;;;;;;5.36;81.86;94005.28;5110348;28;20032;-52
2021/11/17 06:39:35;;;;;;;13.60;9.15;;;;;;;5.40;82.53;94010.50;5109715;28;20035;-50
2021/11/17 06:42:02;;;;;;;9.10;7.85;;;;;;;5.41;81.26;94008.50;5109973;28;20039;-49
2021/11/17 06:44:28;;;;;;;10.45;8.02;;;;;;;5.46;81.17;94007.75;5109755;28;20043;-48
2021/11/17 06:46:54;;;;;;;9.82;7.57;;;;;;;5.47;81.17;94006.50;5090720;28;20132;-49
2021/11/17 06:49:20;;;;;;;12.07;8.55;;;;;;;5.44;81.02;94007.50;5107169;28;20050;-47
2021/11/17 06:51:46;;;;;;;11.98;8.60;;;;;;;5.54;79.74;94011.47;5099262;28;20035;-48
2021/11/17 06:54:12;;;;;;;9.85;8.38;;;;;;;5.36;80.84;94018.22;5105096;28;20032;-48
2021/11/17 06:56:37;;;;;;;11.70;8.82;;;;;;;5.35;81.20;94011.25;5100180;28;20044;-50
2021/11/17 06:59:03;;;;;;;10.48;7.88;;;;;;;5.31;81.05;94016.97;5109194;28;20036;-50
2021/11/17 07:01:29;;;;;;;10.68;7.22;;;;;;;5.40;80.44;94010.50;5109642;28;20031;-51
2021/11/17 07:03:55;;;;;;;12.38;8.18;;;;;;;5.25;80.80;94016.25;5109668;28;20027;-47
2021/11/17 07:06:21;;;;;;;52.60;8.63;;;;;;;5.31;80.39;94011.50;5109530;28;20070;-49
2021/11/17 07:08:46;;;;;;;13.50;11.15;;;;;;;5.10;82.11;94009.56;5107874;28;20027;-58
2021/11/17 07:11:12;;;;;;;13.25;9.82;;;;;;;5.18;81.75;94005.06;5109064;28;20047;-57
2021/11/17 07:13:37;;;;;;;12.23;9.13;;;;;;;5.14;81.36;94005.31;5106395;28;20047;-59
2021/11/17 07:16:03;;;;;;;15.23;10.13;;;;;;;5.07;82.40;94007.81;5109304;28;20031;-55
2021/11/17 07:18:29;;;;;;;13.98;8.68;;;;;;;5.16;82.48;94004.81;5108996;28;20514;-49
2021/11/17 07:20:55;;;;;;;13.02;10.45;;;;;;;5.25;82.00;94002.56;5108354;28;20027;-49
2021/11/17 07:23:20;;;;;;;15.30;11.18;;;;;;;5.30;81.99;94014.75;5108600;28;20042;-48
2021/11/17 07:25:46;;;;;;;13.30;10.48;;;;;;;5.33;81.61;94008.25;5109040;28;20032;-51
2021/11/17 07:28:11;;;;;;;15.23;10.82;;;;;;;5.31;81.48;94019.72;5088890;28;20049;-48
2021/11/17 07:30:39;;;;;;;15.50;10.45;;;;;;;5.32;80.80;94012.25;5088801;28;20032;-48
2021/11/17 07:33:06;;;;;;;14.93;10.70;;;;;;;5.40;80.25;94015.97;5093309;28;20398;-46
2021/11/17 07:35:35;;;;;;;17.10;11.38;;;;;;;5.38;80.93;94021.97;5100038;28;20474;-48
2021/11/17 07:38:02;;;;;;;17.23;11.90;;;;;;;5.46;81.71;94027.66;5108599;28;20031;-46
2021/11/17 07:40:32;;;;;;;15.15;9.73;;;;;;;5.56;80.06;94025.41;5108396;28;20035;-46
2021/11/17 07:42:58;;;;;;;16.25;11.48;;;;;;;5.43;80.67;94022.44;5099226;28;20019;-45
2021/11/17 07:45:24;;;;;;;14.55;9.25;;;;;;;5.36;79.77;94029.19;5108030;28;20479;-45
2021/11/17 07:47:51;;;;;;;14.45;11.18;;;;;;;5.16;80.85;94005.56;5108170;28;20024;-46
2021/11/17 07:50:16;;;;;;;13.48;9.32;;;;;;;5.46;80.33;94035.88;5107864;28;20485;-47
2021/11/17 07:52:42;;;;;;;14.30;10.57;;;;;;;5.48;79.77;94040.84;5108466;28;20058;-47
2021/11/17 07:55:11;;;;;;;14.50;10.38;;;;;;;5.63;79.68;94033.09;5108443;28;20027;-46
2021/11/17 07:57:38;;;;;;;16.20;10.65;;;;;;;5.73;78.95;94035.06;5108073;28;20016;-46
2021/11/17 08:00:07;;;;;;;18.23;11.55;;;;;;;5.75;78.68;94029.81;5089966;28;20031;-54
2021/11/17 08:02:33;;;;;;;14.00;10.35;;;;;;;5.84;78.80;94035.06;5088980;28;20040;-59
2021/11/17 08:04:58;;;;;;;25.83;14.90;;;;;;;5.84;79.65;94032.31;5106906;28;20084;-46
2021/11/17 08:07:23;;;;;;;13.70;10.60;;;;;;;5.97;78.92;94040.72;5089406;28;20020;-46
2021/11/17 08:09:49;;;;;;;14.60;11.90;;;;;;;6.09;78.82;94036.69;5106422;28;20020;-46
2021/11/17 08:12:16;;;;;;;11.60;9.30;;;;;;;6.06;78.65;94037.69;5089350;28;20034;-47
2021/11/17 08:14:41;;;;;;;16.67;11.00;;;;;;;6.01;78.65;94054.91;5107137;28;20031;-46
2021/11/17 08:17:07;;;;;;;15.43;9.98;;;;;;;5.93;78.42;94045.72;5106840;28;20016;-46
2021/11/17 08:19:33;;;;;;;11.70;9.40;;;;;;;6.01;78.69;94043.97;5107313;28;20087;-47
2021/11/17 08:22:00;;;;;;;13.57;10.10;;;;;;;6.01;78.70;94049.44;5107509;28;20119;-60
2021/11/17 08:24:26;;;;;;;15.55;11.35;;;;;;;5.99;78.28;94054.69;5107459;28;20023;-60
2021/11/17 08:26:51;;;;;;;16.80;12.75;;;;;;;5.93;79.32;94047.72;5107557;28;20027;-60
2021/11/17 08:29:17;;;;;;;13.65;11.15;;;;;;;5.84;79.63;94037.03;5107581;28;20362;-60
2021/11/17 08:31:42;;;;;;;12.40;9.88;;;;;;;6.05;79.26;94047.19;5107464;28;20150;-58
2021/11/17 08:34:08;;;;;;;11.90;10.05;;;;;;;6.23;77.64;94045.84;5106671;28;20023;-46
2021/11/17 08:36:35;;;;;;;15.93;12.07;;;;;;;6.08;78.28;94051.66;5106676;28;20027;-46
2021/11/17 08:39:01;;;;;;;15.60;12.27;;;;;;;6.06;78.00;94048.66;5107215;28;20053;-52
2021/11/17 08:41:28;;;;;;;12.50;9.93;;;;;;;5.99;77.90;94046.47;5107231;28;20420;-53
2021/11/17 08:43:53;;;;;;;11.13;9.63;;;;;;;5.85;77.69;94047.50;5106943;28;20042;-52
2021/11/17 08:46:19;;;;;;;16.92;11.73;;;;;;;5.78;79.23;94050.00;5107000;28;20482;-54
2021/11/17 08:48:45;;;;;;;13.50;10.77;;;;;;;5.84;79.86;94056.22;5107448;28;20024;-54
2021/11/17 08:51:14;;;;;;;18.42;9.15;;;;;;;5.92;79.18;94062.66;5107265;28;20421;-52
2021/11/17 08:53:40;;;;;;;;;;;;;;;5.88;78.54;94053.97;5108026;28;20036;-54
2021/11/17 08:56:07;;;;;;;18.75;11.43;;;;;;;6.00;79.30;94056.16;5107224;28;20044;-57
2021/11/17 08:58:33;;;;;;;18.77;12.68;;;;;;;6.10;78.18;94053.88;5106655;28;20841;-53
2021/11/17 09:00:59;;;;;;;13.15;10.40;;;;;;;5.98;78.50;94055.16;5106832;28;20032;-51
2021/11/17 09:03:25;;;;;;;15.85;10.63;;;;;;;5.95;79.00;94051.47;5106677;28;20039;-51
2021/11/17 09:05:54;;;;;;;19.50;13.98;;;;;;;6.02;78.77;94048.16;5106639;28;20031;-54
2021/11/17 09:08:21;;;;;;;15.60;10.88;;;;;;;6.13;78.73;94050.88;5105880;28;20019;-58
2021/11/17 09:10:51;;;;;;;16.50;11.63;;;;;;;5.99;78.40;94051.19;5106619;28;20051;-49
2021/11/17 09:13:18;;;;;;;15.75;12.00;;;;;;;5.96;78.58;94052.19;5107363;28;20024;-52
2021/11/17 09:15:47;;;;;;;13.68;10.52;;;;;;;6.00;77.50;94047.19;5107002;28;20055;-48
2021/11/17 09:18:14;;;;;;;16.13;11.02;;;;;;;5.99;78.04;94051.19;5106975;28;20043;-51
2021/11/17 09:20:40;;;;;;;16.38;11.98;;;;;;;5.94;78.66;94044.47;5106786;28;20036;-55
2021/11/17 09:23:08;;;;;;;15.88;11.13;;;;;;;5.94;77.92;94043.72;5106247;28;20096;-48
2021/11/17 09:25:34;;;;;;;13.32;9.82;;;;;;;5.87;77.19;94036.78;5106526;28;20050;-51
2021/11/17 09:27:59;;;;;;;32.40;10.07;;;;;;;5.93;76.94;94040.22;5106242;28;20028;-57
2021/11/17 09:30:30;;;;;;;12.15;10.23;;;;;;;6.05;76.80;94041.69;5106129;28;20660;-47
2021/11/17 09:32:59;;;;;;;18.17;12.18;;;;;;;6.28;76.66;94039.56;5106707;28;20054;-55
2021/11/17 09:35:28;;;;;;;11.68;8.55;;;;;;;6.23;75.43;94037.63;5088449;28;20027;-51
2021/11/17 09:37:54;;;;;;;51.28;13.45;;;;;;;5.91;75.92;94036.53;5106936;28;20484;-46
2021/11/17 09:40:31;;;;;;;12.73;10.25;;;;;;;5.85;77.55;94044.00;5106643;28;20080;-48
2021/11/17 09:42:57;;;;;;;15.93;10.77;;;;;;;5.74;77.21;94028.31;5103110;28;20031;-48
2021/11/17 09:45:24;;;;;;;14.93;11.27;;;;;;;5.92;76.29;94030.53;5104456;28;20047;-46
2021/11/17 09:47:50;;;;;;;14.48;11.60;;;;;;;5.91;77.40;94036.53;5110025;28;20139;-48
2021/11/17 09:50:25;;;;;;;12.38;9.57;;;;;;;5.85;76.78;94033.78;5109892;28;20050;-47
2021/11/17 09:52:59;;;;;;;13.32;10.38;;;;;;;5.88;77.28;94026.56;5107144;28;20067;-45
2021/11/17 09:55:37;;;;;;;14.95;10.65;;;;;;;6.07;76.92;94022.00;5109626;28;20032;-48
2021/11/17 09:58:12;;;;;;;13.13;9.93;;;;;;;6.11;76.03;94019.72;5109426;28;20032;-49
2021/11/17 10:00:42;;;;;;;10.98;8.90;;;;;;;6.05;75.37;94019.00;5091562;28;20108;-51
2021/11/17 10:03:12;;;;;;;12.18;9.73;;;;;;;6.01;74.84;94022.03;5110195;28;20854;-53
2021/11/17 10:14:16;;;;;;;16.65;11.40;;;;;;;6.23;74.26;94001.97;5099665;28;20548;-50
2021/11/17 10:16:42;;;;;;;9.73;8.02;;;;;;;6.18;74.00;93999.25;5106771;28;20500;-49
2021/11/17 10:19:26;;;;;;;16.77;11.10;;;;;;;6.37;73.51;94002.88;5109426;28;20051;-52
2021/11/17 10:22:14;;;;;;;13.88;11.05;;;;;;;6.29;73.42;93990.97;5107922;28;20035;-50
2021/11/17 10:25:05;;;;;;;13.73;10.30;;;;;;;6.09;73.37;93989.34;5080002;28;20604;-55
2021/11/17 10:27:32;;;;;;;17.92;12.70;;;;;;;6.21;74.48;93981.81;5095195;28;20530;-50
2021/11/17 10:30:15;;;;;;;9.23;6.18;;;;;;;6.42;72.16;93982.91;5109621;28;20404;-52
2021/11/17 10:32:42;;;;;;;11.57;7.50;;;;;;;6.44;71.90;93986.63;5106724;28;20460;-50
2021/11/17 10:35:14;;;;;;;9.00;7.45;;;;;;;6.29;73.05;93977.25;5109156;28;20031;-49
2021/11/17 10:37:43;;;;;;;9.07;6.93;;;;;;;6.30;72.81;93976.78;5106272;28;20031;-49
2021/11/17 10:40:19;;;;;;;11.27;5.95;;;;;;;6.22;72.70;93975.81;5109335;28;20645;-48
2021/11/17 10:42:46;;;;;;;10.68;7.25;;;;;;;6.30;72.36;93976.03;5107428;28;20027;-50
2021/11/17 10:45:13;;;;;;;11.32;7.53;;;;;;;6.33;73.15;93972.25;5090932;28;20033;-48
2021/11/17 10:47:49;;;;;;;9.60;7.05;;;;;;;6.36;72.48;93973.97;5109137;28;20089;-48
2021/11/17 10:50:31;;;;;;;7.35;6.65;;;;;;;6.26;73.69;93970.78;5109281;28;20428;-48
2021/11/17 10:53:16;;;;;;;8.65;7.47;;;;;;;6.43;72.76;93965.22;5109454;28;20039;-50
2021/11/17 10:55:47;;;;;;;22.90;13.27;;;;;;;6.58;72.66;93962.84;5110422;28;20023;-48
2021/11/17 10:58:19;;;;;;;12.20;8.35;;;;;;;6.62;71.96;93961.34;5110626;28;20992;-49
2021/11/17 11:00:58;;;;;;;7.20;6.25;;;;;;;6.57;70.94;93961.34;5112070;28;20023;-48
2021/11/17 11:03:28;;;;;;;7.28;5.65;;;;;;;6.75;70.10;93960.72;5111594;28;20052;-48
2021/11/17 11:06:17;;;;;;;8.27;6.82;;;;;;;6.67;70.95;93966.00;5111671;28;20100;-49
2021/11/17 11:08:44;;;;;;;;;;;;;;;6.62;70.31;93957.84;5073654;28;20028;-49
2021/11/17 11:11:10;;;;;;;6.47;5.88;;;;;;;6.63;69.92;93957.31;5090904;28;20400;-51
2021/11/17 11:13:45;;;;;;;6.20;5.60;;;;;;;6.38;70.58;93944.78;5091332;28;20028;-50
2021/11/17 11:16:18;;;;;;;6.93;6.32;;;;;;;6.41;70.92;93946.50;5091131;28;20059;-51
2021/11/17 11:19:17;;;;;;;9.02;5.43;;;;;;;6.55;71.07;93950.91;5073040;28;20413;-49
2021/11/17 11:21:46;;;;;;;8.63;4.88;;;;;;;6.59;69.78;93948.63;5083051;28;20552;-50
2021/11/17 11:24:29;;;;;;;7.50;5.55;;;;;;;6.45;70.40;93949.00;5090953;28;20367;-48
2021/11/17 11:26:57;;;;;;;12.40;7.03;;;;;;;6.52;71.90;93951.19;5094324;28;20070;-50
2021/11/17 11:29:34;;;;;;;6.38;5.65;;;;;;;6.60;71.08;93949.38;5110704;28;20476;-48
2021/11/17 11:32:06;;;;;;;8.85;5.72;;;;;;;6.62;69.57;93957.84;5107593;28;20548;-52
2021/11/17 11:34:47;;;;;;;9.50;6.75;;;;;;;6.38;70.36;93930.34;5109503;28;20035;-49
2021/11/17 11:37:32;;;;;;;8.75;6.65;;;;;;;6.57;70.81;93953.13;5109239;28;20024;-49
2021/11/17 11:40:06;;;;;;;9.32;6.80;;;;;;;6.61;69.67;93948.09;5090013;28;20032;-48
2021/11/17 11:43:16;;;;;;;11.68;7.43;;;;;;;6.70;69.01;93945.78;5088842;28;20045;-48
2021/11/17 11:45:45;;;;;;;9.43;6.85;;;;;;;6.49;69.02;93938.47;5007700;28;20054;-49
2021/11/17 11:48:24;;;;;;;8.63;7.18;;;;;;;6.51;69.54;93939.47;5007639;28;20522;-49
2021/11/17 11:51:02;;;;;;;9.10;7.32;;;;;;;6.58;69.52;93949.88;5045709;28;20036;-50
2021/11/17 11:53:55;;;;;;;8.63;7.72;;;;;;;6.53;70.10;93938.94;5069941;28;20032;-49
2021/11/17 11:56:50;;;;;;;14.15;8.70;;;;;;;6.63;70.42;93943.59;5070163;28;20024;-49
2021/11/17 11:59:25;;;;;;;12.25;8.80;;;;;;;6.58;71.04;93936.16;5056247;28;20036;-48
2021/11/17 12:02:04;;;;;;;7.70;6.07;;;;;;;6.49;69.99;93936.50;5069727;28;20021;-48
2021/11/17 12:04:30;;;;;;;7.07;6.32;;;;;;;6.42;69.86;93933.53;5068514;28;20684;-48
2021/11/17 12:06:58;;;;;;;10.77;7.43;;;;;;;6.36;70.86;93930.84;5069777;28;20021;-48
2021/11/17 12:09:34;;;;;;;9.23;7.40;;;;;;;6.32;71.14;93933.13;5067545;28;20032;-49
2021/11/17 12:12:17;;;;;;;20.67;15.70;;;;;;;6.24;70.10;93925.97;5049607;28;20490;-49
2021/11/17 12:14:48;;;;;;;20.20;15.25;;;;;;;6.38;69.85;93935.81;5067136;28;20461;-48
2021/11/17 12:17:26;;;;;;;9.80;7.07;;;;;;;6.36;70.15;93941.81;5068513;28;20016;-47
2021/11/17 12:20:01;;;;;;;8.90;7.57;;;;;;;6.28;70.68;93924.41;5067318;28;20073;-49
2021/11/17 12:23:11;;;;;;;7.93;6.78;;;;;;;6.28;70.83;93923.69;5067606;28;20036;-49
2021/11/17 12:25:37;;;;;;;12.55;7.75;;;;;;;6.22;70.75;93914.72;5012110;28;20039;-49
2021/11/17 12:28:11;;;;;;;9.73;7.15;;;;;;;6.08;71.12;93914.59;5055341;28;20032;-50
2021/11/17 12:30:49;;;;;;;14.32;7.75;;;;;;;6.16;71.26;93914.03;5049469;28;20029;-48
2021/11/17 12:33:19;;;;;;;11.43;7.97;;;;;;;6.17;71.63;93912.78;5049158;28;20024;-49
2021/11/17 12:35:58;;;;;;;13.20;7.88;;;;;;;6.13;71.80;93902.84;5048267;28;20029;-48
2021/11/17 12:38:25;;;;;;;11.48;6.95;;;;;;;6.17;71.54;93907.31;5049332;28;20087;-47
2021/11/17 12:41:12;;;;;;;11.55;7.93;;;;;;;6.02;71.58;93907.66;5048955;28;20028;-50
2021/11/17 12:43:57;;;;;;;14.30;8.32;;;;;;;6.17;71.28;93907.31;5060217;28;20020;-48
2021/11/17 12:46:38;;;;;;;10.70;8.10;;;;;;;6.09;70.74;93909.84;5071225;28;20044;-50
2021/11/17 12:49:31;;;;;;;10.07;7.30;;;;;;;5.97;70.86;93917.41;5079851;28;20513;-50
2021/11/17 12:52:16;;;;;;;17.95;9.10;;;;;;;5.84;70.95;93922.72;5109606;28;20512;-50
2021/11/17 12:54:59;;;;;;;9.95;8.65;;;;;;;5.87;70.96;93909.97;5091400;28;20027;-51
2021/11/17 12:57:26;;;;;;;11.80;8.25;;;;;;;5.93;71.49;93913.44;5109384;28;20042;-48
2021/11/17 13:00:20;;;;;;;11.40;8.45;;;;;;;6.01;71.20;93920.63;5109435;28;20144;-50
2021/11/17 13:02:58;;;;;;;11.07;7.90;;;;;;;6.09;70.78;93915.31;5094845;28;20185;-51
2021/11/17 13:05:29;;;;;;;11.02;8.68;;;;;;;6.21;70.08;93916.75;5109337;28;20481;-50
2021/11/17 13:08:00;;;;;;;13.98;10.75;;;;;;;6.18;69.46;93923.25;5109416;28;20020;-50
2021/11/17 13:10:39;;;;;;;11.27;8.60;;;;;;;6.23;69.39;93927.19;5109532;28;20397;-49
2021/11/17 13:13:38;;;;;;;11.95;8.73;;;;;;;6.21;69.86;93929.72;5090909;28;20032;-50
2021/11/17 13:16:08;;;;;;;14.85;11.13;;;;;;;6.20;69.31;93928.97;5109165;28;20036;-49
2021/11/17 13:18:35;;;;;;;8.77;7.15;;;;;;;6.31;69.14;93928.88;5109013;28;20024;-48
2021/11/17 13:21:28;;;;;;;9.98;7.93;;;;;;;6.34;69.81;93921.63;5110618;28;20023;-50
2021/11/17 13:23:56;;;;;;;11.23;9.38;;;;;;;6.47;67.76;93919.06;5113680;28;20083;-49
2021/11/17 13:26:51;;;;;;;13.43;10.80;;;;;;;6.53;67.99;93917.00;5113104;28;20050;-48
2021/11/17 13:29:29;;;;;;;12.00;8.05;;;;;;;6.65;67.35;93915.66;5113222;28;20023;-48
2021/11/17 13:32:15;;;;;;;12.75;8.50;;;;;;;6.48;68.37;93913.03;5095301;28;20074;-49
2021/11/17 13:34:49;;;;;;;13.98;9.80;;;;;;;6.28;69.24;93905.22;5113027;28;20027;-49
2021/11/17 13:37:34;;;;;;;7.57;6.70;;;;;;;6.39;68.86;93901.66;5112924;28;20019;-49
2021/11/17 13:40:06;;;;;;;26.33;16.33;;;;;;;6.24;69.85;93904.03;5112938;28;20051;-47
2021/11/17 13:42:31;;;;;;;15.82;9.85;;;;;;;6.15;70.15;93902.31;5112216;28;20034;-50
2021/11/17 13:44:59;;;;;;;18.55;11.13;;;;;;;6.16;69.86;93898.34;5112659;28;20027;-49
2021/11/17 13:47:25;;;;;;;61.50;29.58;;;;;;;6.11;69.82;93901.84;5112568;28;20040;-48
2021/11/17 13:49:55;;;;;;;22.98;12.88;;;;;;;6.07;70.53;93906.88;5113207;28;20111;-49
2021/11/17 13:52:24;;;;;;;17.00;9.93;;;;;;;6.13;69.74;93897.34;5111928;28;20024;-50
2021/11/17 13:54:50;;;;;;;15.45;8.80;;;;;;;6.22;68.83;93898.28;5101928;28;20024;-48
2021/11/17 13:57:16;;;;;;;20.90;10.52;;;;;;;6.32;68.20;93897.47;5092288;28;20020;-49
2021/11/17 13:59:42;;;;;;;21.80;13.52;;;;;;;6.32;67.82;93897.47;5089481;28;20482;-49
2021/11/17 14:02:08;;;;;;;7.68;6.78;;;;;;;6.18;68.43;93898.56;5112318;28;20024;-49
2021/11/17 14:04:34;;;;;;;21.55;12.90;;;;;;;6.03;68.41;93901.66;5111812;28;20027;-51
2021/11/17 14:07:00;;;;;;;55.40;26.65;;;;;;;5.96;69.45;93904.94;5111855;28;20019;-57
2021/11/17 14:09:27;;;;;;;29.33;16.15;;;;;;;6.05;69.49;93896.41;5112030;28;20030;-56
2021/11/17 14:11:53;;;;;;;20.33;12.95;;;;;;;5.91;69.18;93872.81;5111820;28;20080;-55
2021/11/17 14:14:19;;;;;;;15.50;12.57;;;;;;;6.13;69.75;93899.34;5111788;28;20069;-54
2021/11/17 14:16:45;;;;;;;20.38;13.65;;;;;;;6.15;69.44;93894.09;5111882;28;20024;-56
2021/11/17 14:19:11;;;;;;;14.13;10.77;;;;;;;5.87;70.94;93891.53;5112127;28;20114;-55
2021/11/17 14:21:37;;;;;;;54.50;32.28;;;;;;;6.00;70.23;93891.72;5112065;28;20103;-54
2021/11/17 14:24:03;;;;;;;20.63;13.15;;;;;;;5.79;70.00;93898.78;5107821;28;20469;-56
2021/11/17 14:26:29;;;;;;;28.70;18.45;;;;;;;5.61;69.79;93868.53;5090876;28;20134;-55
2021/11/17 14:29:00;;;;;;;13.43;10.15;;;;;;;5.64;70.01;93898.38;5072237;28;20032;-53
2021/11/17 14:31:34;;;;;;;36.28;22.70;;;;;;;5.57;71.04;93898.16;5073552;28;20028;-51
2021/11/17 14:34:01;;;;;;;17.52;11.60;;;;;;;5.35;71.93;93886.06;5090723;28;20024;-50
2021/11/17 14:36:31;;;;;;;21.58;11.68;;;;;;;5.30;72.21;93883.34;5091150;28;20032;-50
2021/11/17 14:38:57;;;;;;;23.15;13.65;;;;;;;5.31;72.46;93890.28;5094201;28;20031;-49
2021/11/17 14:41:22;;;;;;;18.60;11.95;;;;;;;5.27;72.84;93889.81;5091534;28;20031;-52